地図

経路データ

SID SEASON NUMBER BASIN SUBBASIN NAME ISO_TIME NATURE LAT LON WMO_WIND WMO_PRES WMO_AGENCY TRACK_TYPE DIST2LAND LANDFALL IFLAG USA_AGENCY USA_ATCF_ID USA_LAT USA_LON USA_RECORD USA_STATUS USA_WIND USA_PRES USA_SSHS USA_R34_NE USA_R34_SE USA_R34_SW USA_R34_NW USA_R50_NE USA_R50_SE USA_R50_SW USA_R50_NW USA_R64_NE USA_R64_SE USA_R64_SW USA_R64_NW USA_POCI USA_ROCI USA_RMW USA_EYE TOKYO_LAT TOKYO_LON TOKYO_GRADE TOKYO_WIND TOKYO_PRES TOKYO_R50_DIR TOKYO_R50_LONG TOKYO_R50_SHORT TOKYO_R30_DIR TOKYO_R30_LONG TOKYO_R30_SHORT TOKYO_LAND CMA_LAT CMA_LON CMA_CAT CMA_WIND CMA_PRES HKO_LAT HKO_LON HKO_CAT HKO_WIND HKO_PRES NEWDELHI_LAT NEWDELHI_LON NEWDELHI_GRADE NEWDELHI_WIND NEWDELHI_PRES NEWDELHI_CI NEWDELHI_DP NEWDELHI_POCI REUNION_LAT REUNION_LON REUNION_TYPE REUNION_WIND REUNION_PRES REUNION_TNUM REUNION_CI REUNION_RMW REUNION_R34_NE REUNION_R34_SE REUNION_R34_SW REUNION_R34_NW REUNION_R50_NE REUNION_R50_SE REUNION_R50_SW REUNION_R50_NW REUNION_R64_NE REUNION_R64_SE REUNION_R64_SW REUNION_R64_NW BOM_LAT BOM_LON BOM_TYPE BOM_WIND BOM_PRES BOM_TNUM BOM_CI BOM_RMW BOM_R34_NE BOM_R34_SE BOM_R34_SW BOM_R34_NW BOM_R50_NE BOM_R50_SE BOM_R50_SW BOM_R50_NW BOM_R64_NE BOM_R64_SE BOM_R64_SW BOM_R64_NW BOM_ROCI BOM_POCI BOM_EYE BOM_POS_METHOD BOM_PRES_METHOD NADI_LAT NADI_LON NADI_CAT NADI_WIND NADI_PRES WELLINGTON_LAT WELLINGTON_LON WELLINGTON_WIND WELLINGTON_PRES DS824_LAT DS824_LON DS824_STAGE DS824_WIND DS824_PRES TD9636_LAT TD9636_LON TD9636_STAGE TD9636_WIND TD9636_PRES TD9635_LAT TD9635_LON TD9635_WIND TD9635_PRES TD9635_ROCI NEUMANN_LAT NEUMANN_LON NEUMANN_CLASS NEUMANN_WIND NEUMANN_PRES MLC_LAT MLC_LON MLC_CLASS MLC_WIND MLC_PRES USA_GUST BOM_GUST BOM_GUST_PER REUNION_GUST REUNION_GUST_PER USA_SEAHGT USA_SEARAD_NE USA_SEARAD_SE USA_SEARAD_SW USA_SEARAD_NW STORM_SPEED STORM_DIR
1946310N08089 1946 66 NI BB NOT_NAMED 1946-11-05 18:00:00 TS 8.30000 88.5000 main 742 731 O________O____ jtwc_io IO141946 8.30000 88.5000 -1 8.30000 88.5000 TC 3 309
1946310N08089 1946 66 NI BB NOT_NAMED 1946-11-05 21:00:00 TS 8.38998 88.3875 main 732 712 P________P____ IO141946 8.38998 88.3875 -1 8.38998 88.3875 TC 4 304
1946310N08089 1946 66 NI BB NOT_NAMED 1946-11-06 00:00:00 TS 8.50000 88.2000 main 712 681 O________O____ jtwc_io IO141946 8.50000 88.2000 -1 8.50000 88.2000 TC 25 6 297
1946310N08089 1946 66 NI BB NOT_NAMED 1946-11-06 03:00:00 TS 8.63779 87.8889 main 681 642 P________PO___ IO141946 8.64251 87.8875 -1 8.64251 87.8875 TC 25 8.60000 87.9000 1 8 293
1946310N08089 1946 66 NI BB NOT_NAMED 1946-11-06 06:00:00 TS 8.79417 87.4932 main 642 601 O________OP___ jtwc_io IO141946 8.80000 87.5000 -1 8.80000 87.5000 TC 25 8.77084 87.4661 1 9 291
1946310N08089 1946 66 NI BB NOT_NAMED 1946-11-06 09:00:00 TS 8.94268 87.0851 main 601 565 P________PP___ IO141946 8.94250 87.1000 -1 8.94250 87.1000 TC 25 8.94313 87.0456 1 9 291
1946310N08089 1946 66 NI BB NOT_NAMED 1946-11-06 12:00:00 TS 9.10628 86.6841 main 565 530 O________OP___ jtwc_io IO141946 9.10000 86.7000 -1 9.10000 86.7000 TC 25 9.11884 86.6523 1 8 295
1946310N08089 1946 66 NI BB NOT_NAMED 1946-11-06 15:00:00 TS 9.29498 86.3233 main 530 508 P________PO___ IO141946 9.29246 86.3350 -1 9.29246 86.3350 TC 25 9.30000 86.3000 1 8 300
1946310N08089 1946 66 NI BB NOT_NAMED 1946-11-06 18:00:00 TS 9.49665 85.9984 main 508 489 O________OP___ jtwc_io IO141946 9.50000 86.0000 -1 9.50000 86.0000 TC 25 9.48994 85.9952 1 7 303
1946310N08089 1946 66 NI BB NOT_NAMED 1946-11-06 21:00:00 TS 9.68894 85.7047 main 489 468 P________PP___ IO141946 9.68493 85.6999 -1 9.68493 85.6999 TC 25 9.69697 85.7143 1 7 305
1946310N08089 1946 66 NI BB NOT_NAMED 1946-11-07 00:00:00 TS 9.91018 85.4088 main 468 448 O________OP___ jtwc_io IO141946 9.90000 85.4000 -1 9.90000 85.4000 TC 25 9.93053 85.4263 1 8 309
1946310N08089 1946 66 NI BB NOT_NAMED 1946-11-07 03:00:00 TS 10.1849 85.0866 main 453 431 P________PO___ IO141946 10.1774 85.0799 -1 10.1774 85.0799 TC 25 10.2000 85.1000 1 9 310
1946310N08089 1946 66 NI BB NOT_NAMED 1946-11-07 06:00:00 TS 10.5034 84.6950 main 431 404 O________OP___ jtwc_io IO141946 10.5000 84.7000 -1 10.5000 84.7000 TC 25 10.5102 84.6851 1 11 307
1946310N08089 1946 66 NI BB NOT_NAMED 1946-11-07 09:00:00 TS 10.8418 84.2150 main 404 382 P________PP___ IO141946 10.8351 84.2075 -1 10.8351 84.2075 TC 25 10.8552 84.2301 1 12 306
1946310N08089 1946 66 NI BB NOT_NAMED 1946-11-07 12:00:00 TS 11.2076 83.7200 main 382 352 O________OP___ jtwc_io IO141946 11.2000 83.7000 -1 11.2000 83.7000 TC 25 11.2227 83.7600 1 12 310
1946310N08089 1946 66 NI BB NOT_NAMED 1946-11-07 15:00:00 TS 11.5999 83.2899 main 352 298 P________PO___ IO141946 11.5999 83.2849 -1 11.5999 83.2849 TC 30 11.6000 83.3000 1 11 314
1946310N08089 1946 66 NI BB NOT_NAMED 1946-11-07 18:00:00 TS 11.9959 82.8992 main 298 250 O________OP___ jtwc_io IO141946 12.0000 82.9000 -1 12.0000 82.9000 TC 35 11.9877 82.8976 1 11 315
1946310N08089 1946 66 NI BB NOT_NAMED 1946-11-07 21:00:00 TS 12.3648 82.5023 main 250 206 P________PP___ IO141946 12.3574 82.4999 -1 12.3574 82.4999 TC 35 12.3794 82.5072 1 11 313
1946310N08089 1946 66 NI BB NOT_NAMED 1946-11-08 00:00:00 TS 12.7188 82.1044 main 206 153 O________OP___ jtwc_io IO141946 12.7000 82.1000 -1 12.7000 82.1000 TC 35 12.7564 82.1132 1 11 313
1946310N08089 1946 66 NI BB NOT_NAMED 1946-11-08 03:00:00 TS 13.0766 81.7099 main 153 108 P________PO___ IO141946 13.0649 81.7149 -1 13.0649 81.7149 TC 35 13.1000 81.7000 3 11 311
1946310N08089 1946 66 NI BB NOT_NAMED 1946-11-08 06:00:00 TS 13.4020 81.2889 main 108 54 O________OP___ jtwc_io IO141946 13.4000 81.3000 -1 13.4000 81.3000 TC 35 13.4059 81.2666 3 11 304
1946310N08089 1946 66 NI BB NOT_NAMED 1946-11-08 09:00:00 TS 13.6731 80.8132 main 54 10 P________PP___ IO141946 13.6725 80.8149 -1 13.6725 80.8149 TC 30 13.6744 80.8096 3 11 298
1946310N08089 1946 66 NI BB NOT_NAMED 1946-11-08 12:00:00 TS 13.9019 80.3076 main 10 0 O________OP___ jtwc_io IO141946 13.9000 80.3000 -1 13.9000 80.3000 TC 25 13.9057 80.3229 3 11 294
1946310N08089 1946 66 NI BB NOT_NAMED 1946-11-08 15:00:00 TS 14.1149 79.8100 main 0 0 P________PO___ IO141946 14.1223 79.8149 -1 14.1223 79.8149 TC 25 14.1000 79.8000 1 11 292
1946310N08089 1946 66 NI BB NOT_NAMED 1946-11-08 18:00:00 TS 14.2936 79.2867 main 0 0 O________OP___ jtwc_io IO141946 14.3000 79.3000 -1 14.3000 79.3000 TC 25 14.2807 79.2601 1 11 286
1946310N08089 1946 66 NI BB NOT_NAMED 1946-11-08 21:00:00 TS 14.4229 78.7140 main 0 0 P________PP___ IO141946 14.4223 78.7299 -1 14.4223 78.7299 TC 25 14.4242 78.6823 1 12 281
1946310N08089 1946 66 NI BB NOT_NAMED 1946-11-09 00:00:00 TS 14.5102 78.0878 main 0 0 O________OP___ jtwc_io IO141946 14.5000 78.1000 -1 14.5000 78.1000 TC 25 14.5305 78.0634 1 13 277
1946310N08089 1946 66 NI AS NOT_NAMED 1946-11-09 03:00:00 TS 14.5766 77.4150 main 0 0 P________PO___ IO141946 14.5648 77.4225 -1 14.5648 77.4225 TC 25 14.6000 77.4000 1 14 274
1946310N08089 1946 66 NI AS NOT_NAMED 1946-11-09 06:00:00 TS 14.6038 76.6973 main 0 0 O________OP___ jtwc_io IO141946 14.6000 76.7000 -1 14.6000 76.7000 TC 25 14.6115 76.6920 1 14 271
1946310N08089 1946 66 NI AS NOT_NAMED 1946-11-09 09:00:00 TS 14.5973 75.9527 main 0 0 P________PP___ IO141946 14.5998 75.9573 -1 14.5998 75.9573 TC 25 14.5923 75.9433 1 15 270
1946310N08089 1946 66 NI AS NOT_NAMED 1946-11-09 12:00:00 TS 14.5923 75.1910 main 0 0 O________OP___ jtwc_io IO141946 14.6000 75.2000 -1 14.6000 75.2000 TC 25 14.5770 75.1731 1 15 271
1946310N08089 1946 66 NI AS NOT_NAMED 1946-11-09 15:00:00 TS 14.6232 74.4333 main 0 0 P________PO___ IO141946 14.6348 74.4500 -1 14.6348 74.4500 TC 25 14.6000 74.4000 1 15 274
1946310N08089 1946 66 NI AS NOT_NAMED 1946-11-09 18:00:00 TS 14.6864 73.6443 main 54 54 O________OP___ jtwc_io IO141946 14.7000 73.7000 -1 14.7000 73.7000 TC 25 14.6593 73.5329 1 15 275
1946310N08089 1946 66 NI AS NOT_NAMED 1946-11-09 21:00:00 TS 14.7589 72.8510 main 112 112 P________PP___ IO141946 14.7549 72.9347 -1 14.7549 72.9347 TC 25 14.7668 72.6836 1 15 279
1946310N08089 1946 66 NI AS NOT_NAMED 1946-11-10 00:00:00 TS 14.9136 72.1141 main 188 188 O________OP___ jtwc_io IO141946 14.9000 72.2000 -1 14.9000 72.2000 TC 25 14.9407 71.9424 1 15 287
1946310N08089 1946 66 NI AS NOT_NAMED 1946-11-10 03:00:00 TS 15.1935 71.4155 main 246 246 P________PO___ IO141946 15.1902 71.4232 -1 15.1902 71.4232 TC 25 15.2000 71.4000 1 13 302
1946310N08089 1946 66 NI AS NOT_NAMED 1946-11-10 06:00:00 TS 15.5928 70.9753 main 265 262 O________OP___ jtwc_io IO141946 15.6000 70.9000 -1 15.6000 70.9000 TC 25 15.5783 71.1257 1 10 332
1946310N08089 1946 66 NI AS NOT_NAMED 1946-11-10 09:00:00 TS 16.0742 70.9337 main 260 234 P________PP___ IO141946 16.0922 70.8720 -1 16.0922 70.8720 TC 25 16.0381 71.0571 1 10 8
1946310N08089 1946 66 NI AS NOT_NAMED 1946-11-10 12:00:00 TS 16.5763 71.1117 main 234 202 O________OP___ jtwc_io IO141946 16.6000 71.1000 -1 16.6000 71.1000 TC 25 16.5289 71.1350 1 10 20
1946310N08089 1946 66 NI AS NOT_NAMED 1946-11-10 15:00:00 TS 17.0150 71.2900 main 202 171 P________PO___ IO141946 17.0225 71.2850 -1 17.0225 71.2850 TC 25 17.0000 71.3000 1 9 24
1946310N08089 1946 66 NI AS NOT_NAMED 1946-11-10 18:00:00 TS 17.4048 71.5004 main 171 138 O________OP___ jtwc_io IO141946 17.4000 71.5000 -1 17.4000 71.5000 TC 25 17.4119 71.5009 1 9 28
1946310N08089 1946 66 NI AS NOT_NAMED 1946-11-10 21:00:00 TS 17.7618 71.7123 main 134 106 P________PP___ IO141946 17.7550 71.7049 -1 17.7550 71.7049 TC 25 17.7709 71.7222 1 8 30
1946310N08089 1946 66 NI AS NOT_NAMED 1946-11-11 00:00:00 TS 18.0972 71.9287 main 106 73 O________OP___ jtwc_io IO141946 18.1000 71.9000 -1 18.1000 71.9000 TC 25 18.0944 71.9574 1 8 36
1946310N08089 1946 66 NI AS NOT_NAMED 1946-11-11 03:00:00 NR 18.4000 72.2000 main 73 __________O___ IO141946 -1 TC 18.4000 72.2000 1 8 40

IBTrACS Databaseについて

本データベースは、米国NOAAが公開する1842年以降の世界の熱帯低気圧のベストトラックデータアーカイブInternational Best Track Archive for Climate Stewardship (IBTrACS)を、ウェブで閲覧しやすい形式に変換したものです。

最終更新日:2021-11-26